createdAt,value
2023-01-13T00:00:17.176Z,44.72
2023-01-13T00:02:44.920Z,50.67
2023-01-13T00:05:12.731Z,47.38
2023-01-13T00:07:40.499Z,45.70
2023-01-13T00:10:11.873Z,45.75
2023-01-13T00:12:43.737Z,43.53
2023-01-13T00:15:12.155Z,42.58
2023-01-13T00:17:39.640Z,47.38
2023-01-13T00:20:08.293Z,45.95
2023-01-13T00:22:36.393Z,40.97
2023-01-13T00:25:04.757Z,40.38
2023-01-13T00:27:32.732Z,42.67
2023-01-13T00:30:00.945Z,46.90
2023-01-13T00:32:31.471Z,45.72
2023-01-13T00:34:59.205Z,41.42
2023-01-13T00:37:27.197Z,46.53
2023-01-13T00:39:55.012Z,49.28
2023-01-13T00:42:40.868Z,48.65
2023-01-13T00:45:08.746Z,50.65
2023-01-13T00:47:36.295Z,49.80
2023-01-13T00:50:04.065Z,50.50
2023-01-13T00:52:33.666Z,53.65
2023-01-13T00:55:01.559Z,60.63
2023-01-13T00:57:29.091Z,65.20
2023-01-13T00:59:56.723Z,63.63
2023-01-13T01:02:26.983Z,76.72
2023-01-13T01:04:55.900Z,64.10
2023-01-13T01:07:23.580Z,64.55
2023-01-13T01:09:51.259Z,68.70
2023-01-13T01:12:18.581Z,64.88
2023-01-13T01:14:46.328Z,67.15
2023-01-13T01:17:16.623Z,76.43
2023-01-13T01:19:44.336Z,69.30
2023-01-13T01:22:11.934Z,73.20
2023-01-13T01:24:39.498Z,75.35
2023-01-13T01:27:06.981Z,74.05
2023-01-13T01:29:34.731Z,64.97
2023-01-13T01:32:02.342Z,69.32
2023-01-13T01:34:29.978Z,66.60
2023-01-13T01:36:57.624Z,68.80
2023-01-13T01:39:25.111Z,63.47
2023-01-13T01:42:10.846Z,64.20
2023-01-13T01:45:04.364Z,58.10
2023-01-13T01:47:32.776Z,62.88
2023-01-13T01:50:03.409Z,59.25
2023-01-13T01:52:43.557Z,61.00
2023-01-13T01:55:16.067Z,58.28
2023-01-13T01:57:52.123Z,63.08
2023-01-13T02:00:19.762Z,62.17
2023-01-13T02:02:50.939Z,54.83
2023-01-13T02:05:19.181Z,68.13
2023-01-13T02:07:50.230Z,67.72
2023-01-13T02:10:24.105Z,57.58
2023-01-13T02:12:53.042Z,61.25
2023-01-13T02:15:42.810Z,66.57
2023-01-13T02:18:35.144Z,57.97
2023-01-13T02:21:17.334Z,54.22
2023-01-13T02:24:21.829Z,59.63
2023-01-13T02:27:23.414Z,53.97
2023-01-13T02:30:24.473Z,52.53
2023-01-13T02:33:08.390Z,52.75
2023-01-13T02:35:47.966Z,59.08
2023-01-13T02:38:20.439Z,58.80
2023-01-13T02:40:59.757Z,54.78
2023-01-13T02:43:55.142Z,59.28
2023-01-13T02:46:30.346Z,56.22
2023-01-13T02:49:07.039Z,53.42
2023-01-13T02:51:38.794Z,59.97
2023-01-13T02:54:17.825Z,50.65
2023-01-13T02:56:51.344Z,50.42
2023-01-13T02:59:21.111Z,50.70
2023-01-13T03:01:50.453Z,45.00
2023-01-13T03:04:47.242Z,47.78
2023-01-13T03:07:46.578Z,40.53
2023-01-13T03:10:50.164Z,38.23
2023-01-13T03:13:33.372Z,41.75
2023-01-13T03:19:27.891Z,39.13
2023-01-13T03:22:26.581Z,35.33
2023-01-13T03:25:07.515Z,39.47
2023-01-13T03:27:45.266Z,33.50
2023-01-13T03:30:35.746Z,37.35
2023-01-13T03:33:18.159Z,34.47
2023-01-13T03:35:52.096Z,34.92
2023-01-13T03:38:27.197Z,35.88
2023-01-13T03:40:59.755Z,32.67
2023-01-13T03:43:55.791Z,34.35
2023-01-13T03:46:44.804Z,34.17
2023-01-13T03:49:17.742Z,34.70
2023-01-13T03:51:50.799Z,34.88
2023-01-13T03:54:20.043Z,30.90
2023-01-13T03:56:52.585Z,41.25
2023-01-13T03:59:26.618Z,38.83
2023-01-13T04:02:23.396Z,36.85
2023-01-13T04:05:03.232Z,39.00
2023-01-13T04:07:44.520Z,40.85
2023-01-13T04:10:14.267Z,36.95
2023-01-13T04:13:16.953Z,42.13
2023-01-13T04:15:49.211Z,38.27
2023-01-13T04:18:22.653Z,38.65
2023-01-13T04:20:52.672Z,42.03
2023-01-13T04:23:21.357Z,37.90
2023-01-13T04:25:49.615Z,42.38
2023-01-13T04:28:18.166Z,41.78
2023-01-13T04:30:46.068Z,37.60
2023-01-13T04:33:14.683Z,46.67
2023-01-13T04:35:42.320Z,37.22
2023-01-13T04:38:15.210Z,50.65
2023-01-13T04:43:10.554Z,42.60
2023-01-13T04:45:38.251Z,46.13
2023-01-13T04:48:05.928Z,45.88
2023-01-13T04:50:33.572Z,54.25
2023-01-13T04:53:01.823Z,49.30
2023-01-13T04:55:29.916Z,52.97
2023-01-13T04:58:10.994Z,54.67
2023-01-13T05:00:38.774Z,52.72
2023-01-13T05:03:06.283Z,50.03
2023-01-13T05:05:33.978Z,46.10
2023-01-13T05:08:01.381Z,44.35
2023-01-13T05:10:28.816Z,48.15
2023-01-13T05:13:14.423Z,54.38
2023-01-13T05:16:00.536Z,59.50
2023-01-13T05:18:29.836Z,84.47
2023-01-13T05:20:57.815Z,100.20
2023-01-13T05:23:43.720Z,74.53
2023-01-13T05:26:11.253Z,51.53
2023-01-13T05:28:38.655Z,52.97
2023-01-13T05:31:06.476Z,53.97
2023-01-13T05:33:36.402Z,50.03
2023-01-13T05:36:04.561Z,42.88
2023-01-13T05:38:32.263Z,50.97
2023-01-13T05:41:19.104Z,45.65
2023-01-13T05:43:47.035Z,44.92
2023-01-13T05:46:15.143Z,50.15
2023-01-13T05:48:43.971Z,55.03
2023-01-13T05:51:13.133Z,45.67
2023-01-13T05:53:43.859Z,53.10
2023-01-13T05:56:11.992Z,55.10
2023-01-13T05:58:39.675Z,46.53
2023-01-13T06:01:09.272Z,50.95
2023-01-13T06:03:37.983Z,50.15
2023-01-13T06:06:06.220Z,54.38
2023-01-13T06:08:36.948Z,53.78
2023-01-13T06:11:05.977Z,53.00
2023-01-13T06:13:33.535Z,47.05
2023-01-13T06:16:01.521Z,41.13
2023-01-13T06:18:29.375Z,43.45
2023-01-13T06:20:57.753Z,36.30
2023-01-13T06:23:25.499Z,40.92
2023-01-13T06:26:28.461Z,33.72
2023-01-13T06:28:56.426Z,36.65
2023-01-13T06:31:25.447Z,39.55
2023-01-13T06:33:59.279Z,42.63
2023-01-13T06:36:32.679Z,38.13
2023-01-13T06:39:03.086Z,36.20
2023-01-13T06:41:51.971Z,34.55
2023-01-13T06:44:20.729Z,38.55
2023-01-13T06:46:48.875Z,30.10
2023-01-13T06:49:16.525Z,35.80
2023-01-13T06:51:44.030Z,31.85
2023-01-13T06:54:11.596Z,42.65
2023-01-13T06:56:39.360Z,39.00
2023-01-13T06:59:07.018Z,42.15
2023-01-13T07:01:34.695Z,32.40
2023-01-13T07:04:02.795Z,32.38
2023-01-13T07:06:30.536Z,32.97
2023-01-13T07:08:58.081Z,30.83
2023-01-13T07:11:25.747Z,30.98
2023-01-13T07:14:11.554Z,33.97
2023-01-13T07:16:39.111Z,32.47
2023-01-13T07:19:06.709Z,29.52
2023-01-13T07:21:37.174Z,28.10
2023-01-13T07:24:05.168Z,32.80
2023-01-13T07:26:32.687Z,30.70
2023-01-13T07:29:01.194Z,32.00
2023-01-13T07:31:28.929Z,25.55
2023-01-13T07:33:56.564Z,29.48
2023-01-13T07:36:27.053Z,27.52
2023-01-13T07:38:57.800Z,24.77
2023-01-13T07:41:44.258Z,24.77
2023-01-13T07:44:12.145Z,27.55
2023-01-13T07:46:40.171Z,29.48
2023-01-13T07:49:09.521Z,28.67
2023-01-13T07:51:42.100Z,27.25
2023-01-13T07:54:12.960Z,22.38
2023-01-13T07:56:40.506Z,23.65
2023-01-13T07:59:08.000Z,24.98
2023-01-13T08:01:35.783Z,25.33
2023-01-13T08:04:03.497Z,25.40
2023-01-13T08:06:31.143Z,22.13
2023-01-13T08:08:59.168Z,23.67
2023-01-13T08:11:26.667Z,20.05
2023-01-13T08:13:57.920Z,28.88
2023-01-13T08:16:25.654Z,23.10
2023-01-13T08:18:53.224Z,21.30
2023-01-13T08:21:20.797Z,22.55
2023-01-13T08:23:48.243Z,22.70
2023-01-13T08:26:19.412Z,23.85
2023-01-13T08:28:47.172Z,21.27
2023-01-13T08:31:16.778Z,20.63
2023-01-13T08:33:44.713Z,24.10
2023-01-13T08:36:15.220Z,23.05
2023-01-13T08:38:42.686Z,23.95
2023-01-13T08:41:15.776Z,22.00
2023-01-13T08:43:44.884Z,20.30
2023-01-13T08:46:12.522Z,22.58
2023-01-13T08:48:40.007Z,23.00
2023-01-13T08:51:09.655Z,28.65
2023-01-13T08:53:37.530Z,25.13
2023-01-13T08:56:11.891Z,19.13
2023-01-13T08:58:42.298Z,27.85
2023-01-13T09:01:21.216Z,16.30
2023-01-13T09:03:48.851Z,26.08
2023-01-13T09:06:16.387Z,35.72
2023-01-13T09:08:44.441Z,29.65
2023-01-13T09:11:38.815Z,21.75
2023-01-13T09:14:06.518Z,20.77
2023-01-13T09:16:38.911Z,22.40
2023-01-13T09:19:06.417Z,20.25
2023-01-13T09:21:34.813Z,22.15
2023-01-13T09:24:07.567Z,18.75
2023-01-13T09:30:47.846Z,20.92
2023-01-13T09:33:35.532Z,19.85
2023-01-13T09:36:05.152Z,21.42
2023-01-13T09:38:32.704Z,24.50
2023-01-13T09:41:00.336Z,22.48
2023-01-13T09:43:56.492Z,22.40
2023-01-13T09:46:45.676Z,17.65
2023-01-13T09:49:26.689Z,27.55
2023-01-13T09:52:15.400Z,26.50
2023-01-13T09:55:03.766Z,35.05
2023-01-13T09:57:37.685Z,31.98
2023-01-13T10:00:11.124Z,27.75
2023-01-13T10:02:54.178Z,29.30
2023-01-13T10:06:04.993Z,24.90
2023-01-13T10:08:37.252Z,60.90
2023-01-13T10:11:32.107Z,24.27
2023-01-13T10:14:03.773Z,52.65
2023-01-13T10:16:51.387Z,25.35
2023-01-13T10:19:44.066Z,28.20
2023-01-13T10:22:35.848Z,21.08
2023-01-13T10:25:41.071Z,24.25
2023-01-13T10:28:14.760Z,19.88
2023-01-13T10:30:44.991Z,25.35
2023-01-13T10:33:17.750Z,29.67
2023-01-13T10:35:50.340Z,29.48
2023-01-13T10:38:42.742Z,29.13
2023-01-13T10:41:16.379Z,26.43
2023-01-13T10:44:04.622Z,28.58
2023-01-13T10:46:35.003Z,25.33
2023-01-13T10:49:18.917Z,21.10
2023-01-13T10:51:47.264Z,29.00
2023-01-13T10:54:20.275Z,28.75
2023-01-13T10:56:50.252Z,24.98
2023-01-13T10:59:27.727Z,26.13
2023-01-13T11:02:23.980Z,26.40
2023-01-13T11:05:25.465Z,29.02
2023-01-13T11:07:58.204Z,39.15
2023-01-13T11:13:06.979Z,28.15
2023-01-13T11:15:56.438Z,29.90
2023-01-13T11:19:13.609Z,36.78
2023-01-13T11:22:01.229Z,28.30
2023-01-13T11:24:40.294Z,32.03
2023-01-13T11:27:13.788Z,35.55
2023-01-13T11:30:18.718Z,33.58
2023-01-13T11:32:59.041Z,32.25
2023-01-13T11:35:27.446Z,23.63
2023-01-13T11:38:02.973Z,29.23
2023-01-13T11:40:40.807Z,30.92
2023-01-13T11:43:20.827Z,30.33
2023-01-13T11:46:04.460Z,32.17
2023-01-13T11:48:35.510Z,32.25
2023-01-13T11:51:24.761Z,29.88
2023-01-13T11:54:52.353Z,33.42
2023-01-13T11:58:01.142Z,28.73
2023-01-13T12:00:59.834Z,31.02
2023-01-13T12:03:59.591Z,28.92
2023-01-13T12:06:41.031Z,29.92
2023-01-13T12:09:21.555Z,29.65
2023-01-13T12:12:31.577Z,29.48
2023-01-13T12:15:26.168Z,25.85
2023-01-13T12:18:34.201Z,26.08
2023-01-13T12:21:24.712Z,29.10
2023-01-13T12:24:30.228Z,25.30
2023-01-13T12:27:01.981Z,26.85
2023-01-13T12:29:36.193Z,29.90
2023-01-13T12:32:08.216Z,28.75
2023-01-13T12:35:08.028Z,32.95
2023-01-13T12:38:18.071Z,19.58
2023-01-13T12:42:01.153Z,30.20
2023-01-13T12:44:28.792Z,31.00
2023-01-13T12:49:50.265Z,24.58
2023-01-13T12:52:20.064Z,28.63
2023-01-13T12:54:47.471Z,31.48
2023-01-13T12:57:35.518Z,26.75
2023-01-13T13:00:03.007Z,28.92
2023-01-13T13:02:31.611Z,25.48
2023-01-13T13:05:24.396Z,26.80
2023-01-13T13:08:05.227Z,26.95
2023-01-13T13:10:36.782Z,27.05
2023-01-13T13:13:20.224Z,27.83
2023-01-13T13:15:50.335Z,24.48
2023-01-13T13:18:17.756Z,27.33
2023-01-13T13:21:07.190Z,29.38
2023-01-13T13:23:38.211Z,22.85
2023-01-13T13:26:26.997Z,27.60
2023-01-13T13:29:20.532Z,29.63
2023-01-13T13:32:19.747Z,31.80
2023-01-13T13:35:07.961Z,32.58
2023-01-13T13:37:59.971Z,31.73
2023-01-13T13:41:01.664Z,33.60
2023-01-13T13:43:56.332Z,37.63
2023-01-13T13:46:45.339Z,31.00
2023-01-13T13:49:16.963Z,30.13
2023-01-13T13:52:00.814Z,33.40
2023-01-13T13:54:28.823Z,32.67
2023-01-13T13:56:56.756Z,32.85
2023-01-13T13:59:26.668Z,37.65
2023-01-13T14:02:04.144Z,45.42
2023-01-13T14:04:34.160Z,47.58
2023-01-13T14:07:07.143Z,35.63
2023-01-13T14:09:45.351Z,35.10
2023-01-13T14:12:23.189Z,33.42
2023-01-13T14:14:51.560Z,35.38
2023-01-13T14:17:30.244Z,35.42
2023-01-13T14:20:06.204Z,34.30
2023-01-13T14:22:34.144Z,38.63
2023-01-13T14:25:02.298Z,32.25
2023-01-13T14:27:31.346Z,32.97
2023-01-13T14:30:02.615Z,37.83
2023-01-13T14:32:36.726Z,34.40
2023-01-13T14:35:08.712Z,31.42
2023-01-13T14:37:39.530Z,30.17
2023-01-13T14:40:07.204Z,28.67
2023-01-13T14:42:35.777Z,30.05
2023-01-13T14:45:03.515Z,33.22
2023-01-13T14:47:34.148Z,29.58
2023-01-13T14:50:16.973Z,28.42
2023-01-13T14:52:50.125Z,23.67
2023-01-13T14:55:30.412Z,30.50
2023-01-13T14:58:23.166Z,41.30
2023-01-13T15:00:52.016Z,39.95
2023-01-13T15:03:21.493Z,28.15
2023-01-13T15:05:53.958Z,35.30
2023-01-13T15:08:34.913Z,28.83
2023-01-13T15:11:05.471Z,29.35
2023-01-13T15:13:46.759Z,28.15
2023-01-13T15:16:26.631Z,31.30
2023-01-13T15:18:58.377Z,30.60
2023-01-13T15:21:26.151Z,18.20
2023-01-13T15:23:53.909Z,26.38
2023-01-13T15:26:27.708Z,25.48
2023-01-13T15:28:57.225Z,22.00
2023-01-13T15:31:25.915Z,21.55
2023-01-13T15:33:53.473Z,24.67
2023-01-13T15:36:28.929Z,18.55
2023-01-13T15:38:57.742Z,24.67
2023-01-13T15:41:44.361Z,27.85
2023-01-13T15:44:34.395Z,24.23
2023-01-13T15:47:07.690Z,22.67
2023-01-13T15:49:41.057Z,18.30
2023-01-13T15:52:23.657Z,23.60
2023-01-13T15:54:52.344Z,21.85
2023-01-13T15:57:26.101Z,22.00
2023-01-13T16:00:00.506Z,29.20
2023-01-13T16:02:30.013Z,29.20
2023-01-13T16:04:58.318Z,30.40
2023-01-13T16:07:26.400Z,38.50
2023-01-13T16:09:56.300Z,34.67
2023-01-13T16:12:24.456Z,34.53
2023-01-13T16:14:52.207Z,44.20
2023-01-13T16:17:25.645Z,34.50
2023-01-13T16:19:56.151Z,32.85
2023-01-13T16:22:24.216Z,29.65
2023-01-13T16:24:55.150Z,41.45
2023-01-13T16:27:25.316Z,35.88
2023-01-13T16:29:54.108Z,25.73
2023-01-13T16:32:21.790Z,27.80
2023-01-13T16:34:50.760Z,24.10
2023-01-13T16:37:22.145Z,23.77
2023-01-13T16:39:52.810Z,25.80
2023-01-13T16:42:21.562Z,26.35
2023-01-13T16:44:50.901Z,31.48
2023-01-13T16:47:19.272Z,31.23
2023-01-13T16:49:47.288Z,26.80
2023-01-13T16:52:15.164Z,26.88
2023-01-13T16:54:43.070Z,27.88
2023-01-13T16:57:13.727Z,28.75
2023-01-13T16:59:41.628Z,24.45
2023-01-13T17:02:14.990Z,29.33
2023-01-13T17:04:43.092Z,26.60
2023-01-13T17:07:17.583Z,26.52
2023-01-13T17:09:46.070Z,31.73
2023-01-13T17:12:14.243Z,26.45
2023-01-13T17:14:44.003Z,29.17
2023-01-13T17:17:28.799Z,27.50
2023-01-13T17:19:56.759Z,27.70
2023-01-13T17:22:24.712Z,24.92
2023-01-13T17:24:53.336Z,27.55
2023-01-13T17:27:22.051Z,37.35
2023-01-13T17:29:50.999Z,32.45
2023-01-13T17:32:20.131Z,31.10
2023-01-13T17:34:48.946Z,34.72
2023-01-13T17:37:17.218Z,29.70
2023-01-13T17:39:47.006Z,29.55
2023-01-13T17:42:16.647Z,34.78
2023-01-13T17:44:44.720Z,31.13
2023-01-13T17:47:13.194Z,44.97
2023-01-13T17:49:43.257Z,50.00
2023-01-13T17:52:13.457Z,37.30
2023-01-13T17:54:44.849Z,38.03
2023-01-13T17:57:12.784Z,34.22
2023-01-13T17:59:42.032Z,37.50
2023-01-13T18:02:12.732Z,38.22
2023-01-13T18:04:42.023Z,37.70
2023-01-13T18:07:10.344Z,31.67
2023-01-13T18:09:38.772Z,37.72
2023-01-13T18:12:06.881Z,47.85
2023-01-13T18:14:35.829Z,47.38
2023-01-13T18:17:04.237Z,57.03
2023-01-13T18:19:51.372Z,65.47
2023-01-13T18:22:38.708Z,68.15
2023-01-13T18:25:28.760Z,75.30
2023-01-13T18:28:02.591Z,75.68
2023-01-13T18:30:30.689Z,70.20
2023-01-13T18:32:58.531Z,79.35
2023-01-13T18:35:26.507Z,92.90
2023-01-13T18:37:58.374Z,99.85
2023-01-13T18:40:26.427Z,83.47
2023-01-13T18:42:59.491Z,85.15
2023-01-13T18:45:30.009Z,72.13
2023-01-13T18:48:02.309Z,77.78
2023-01-13T18:50:31.543Z,78.25
2023-01-13T18:53:00.021Z,83.85
2023-01-13T18:55:29.351Z,71.90
2023-01-13T18:57:57.449Z,70.53
2023-01-13T19:00:37.114Z,72.70
2023-01-13T19:05:34.863Z,80.25
2023-01-13T19:08:04.003Z,70.00
2023-01-13T19:10:32.868Z,74.78
2023-01-13T19:13:01.962Z,75.68
2023-01-13T19:15:30.295Z,87.00
2023-01-13T19:17:58.708Z,74.57
2023-01-13T19:20:26.517Z,83.35
2023-01-13T19:22:54.582Z,75.13
2023-01-13T19:25:23.860Z,78.47
2023-01-13T19:27:52.163Z,72.10
2023-01-13T19:30:20.051Z,72.45
2023-01-13T19:32:49.312Z,67.45
2023-01-13T19:35:18.206Z,67.78
2023-01-13T19:37:45.992Z,65.53
2023-01-13T19:40:14.146Z,69.03
2023-01-13T19:43:05.196Z,65.45
2023-01-13T19:45:35.843Z,66.70
2023-01-13T19:48:05.737Z,62.30
2023-01-13T19:50:39.160Z,63.50
2023-01-13T19:53:08.455Z,65.55
2023-01-13T19:55:39.244Z,58.97
2023-01-13T19:58:08.526Z,58.22
2023-01-13T20:00:36.903Z,54.83
2023-01-13T20:03:08.502Z,57.70
2023-01-13T20:05:36.910Z,55.60
2023-01-13T20:08:04.916Z,53.42
2023-01-13T20:10:32.936Z,54.72
2023-01-13T20:13:01.597Z,57.78
2023-01-13T20:15:33.180Z,59.75
2023-01-13T20:18:04.187Z,56.75
2023-01-13T20:20:32.835Z,62.63
2023-01-13T20:23:00.977Z,66.82
2023-01-13T20:25:30.089Z,116.80
2023-01-13T20:27:59.295Z,94.05
2023-01-13T20:30:27.211Z,87.60
2023-01-13T20:32:56.710Z,89.50
2023-01-13T20:35:27.814Z,117.65
2023-01-13T20:37:58.726Z,117.82
2023-01-13T20:40:27.667Z,132.05
2023-01-13T20:42:57.014Z,127.07
2023-01-13T20:45:29.685Z,108.78
2023-01-13T20:47:57.963Z,107.35
2023-01-13T20:50:26.132Z,104.40
2023-01-13T20:52:54.436Z,102.18
2023-01-13T20:55:22.584Z,88.55
2023-01-13T20:57:51.094Z,94.78
2023-01-13T21:00:19.875Z,88.53
2023-01-13T21:02:48.230Z,89.53
2023-01-13T21:05:16.381Z,80.22
2023-01-13T21:07:44.108Z,74.03
2023-01-13T21:10:14.468Z,69.78
2023-01-13T21:13:03.561Z,62.35
2023-01-13T21:15:35.099Z,60.70
2023-01-13T21:18:21.644Z,60.80
2023-01-13T21:20:51.189Z,58.28
2023-01-13T21:23:19.119Z,61.95
2023-01-13T21:25:47.420Z,63.10
2023-01-13T21:28:16.911Z,57.58
2023-01-13T21:30:45.748Z,57.22
2023-01-13T21:33:14.631Z,51.42
2023-01-13T21:46:35.607Z,45.35
2023-01-13T21:49:04.372Z,44.67
2023-01-13T21:51:35.355Z,45.67
2023-01-13T21:54:03.102Z,42.75
2023-01-13T21:56:30.606Z,56.47
2023-01-13T21:59:00.407Z,51.53
2023-01-13T22:01:28.056Z,42.95
2023-01-13T22:04:13.379Z,42.35
2023-01-13T22:06:40.938Z,45.83
2023-01-13T22:09:08.513Z,41.92
2023-01-13T22:11:36.258Z,52.75
2023-01-13T22:14:07.312Z,59.35
2023-01-13T22:16:49.142Z,57.95
2023-01-13T22:19:18.345Z,48.13
2023-01-13T22:21:45.975Z,44.80
2023-01-13T22:24:14.545Z,50.08
2023-01-13T22:26:42.293Z,50.03
2023-01-13T22:29:14.539Z,54.55
2023-01-13T22:31:42.361Z,47.92
2023-01-13T22:34:12.817Z,52.97
2023-01-13T22:36:40.422Z,68.47
2023-01-13T22:39:08.639Z,58.05
2023-01-13T22:41:36.400Z,65.47
2023-01-13T22:44:04.120Z,62.75
2023-01-13T22:46:34.909Z,63.95
2023-01-13T22:49:02.575Z,63.40
2023-01-13T22:51:32.979Z,62.58
2023-01-13T22:54:02.775Z,63.40
